Time;durP1;ratioP1;P1;durP2;ratioP2;P2;SDS_P1;SDS_P2;PMS_P1;PMS_P2;Temp;Humidity;BMP_temperature;BMP_pressure;BME280_temperature;BME280_humidity;BME280_pressure;Samples;Min_cycle;Max_cycle;Signal;HPM_P1;HPM_P2
2023/03/11 00:01:41;;;;;;;16.58;1.60;;;;;;;;;;4849773;29;20072;-77
2023/03/11 00:04:07;;;;;;;11.80;1.52;;;;;;;;;;4848522;29;20053;-76
2023/03/11 00:06:37;;;;;;;10.07;1.92;;;;;;;;;;4850378;29;20053;-77
2023/03/11 00:09:03;;;;;;;5.30;0.93;;;;;;;;;;4836373;29;21980;-77
2023/03/11 00:11:30;;;;;;;7.20;1.17;;;;;;;;;;4858520;29;20068;-77
2023/03/11 00:13:56;;;;;;;3.55;1.02;;;;;;;;;;4850963;29;20052;-77
2023/03/11 00:16:22;;;;;;;7.20;0.80;;;;;;;;;;4826358;29;20041;-77
2023/03/11 00:18:52;;;;;;;6.43;1.00;;;;;;;;;;4852067;29;20044;-77
2023/03/11 00:21:19;;;;;;;5.75;1.50;;;;;;;;;;4862378;29;20421;-76
2023/03/11 00:23:45;;;;;;;8.77;1.20;;;;;;;;;;4865889;29;20630;-77
2023/03/11 00:26:11;;;;;;;7.38;0.82;;;;;;;;;;4866132;29;20068;-77
2023/03/11 00:28:37;;;;;;;5.07;1.17;;;;;;;;;;4843253;29;20044;-76
2023/03/11 00:31:04;;;;;;;7.25;1.48;;;;;;;;;;4872573;29;20092;-76
2023/03/11 00:33:30;;;;;;;5.80;0.85;;;;;;;;;;4851081;29;23492;-77
2023/03/11 00:35:56;;;;;;;2.58;0.88;;;;;;;;;;4850890;29;20052;-77
2023/03/11 00:38:22;;;;;;;8.00;1.13;;;;;;;;;;4852146;29;20057;-77
2023/03/11 00:40:49;;;;;;;5.50;0.93;;;;;;;;;;4850283;29;20045;-77
2023/03/11 00:43:15;;;;;;;2.13;0.77;;;;;;;;;;4849672;29;20075;-76
2023/03/11 00:45:42;;;;;;;2.28;0.60;;;;;;;;;;4851704;29;20063;-76
2023/03/11 00:48:08;;;;;;;5.90;1.23;;;;;;;;;;4836924;29;20049;-77
2023/03/11 00:50:35;;;;;;;4.93;0.98;;;;;;;;;;4848302;29;20053;-77
2023/03/11 00:53:01;;;;;;;4.97;1.00;;;;;;;;;;4849785;29;20060;-77
2023/03/11 00:55:29;;;;;;;6.57;0.90;;;;;;;;;;4848778;29;21981;-76
2023/03/11 00:57:57;;;;;;;4.03;0.98;;;;;;;;;;4850063;29;20052;-77
2023/03/11 01:00:24;;;;;;;3.97;0.60;;;;;;;;;;4851487;29;20056;-76
2023/03/11 01:02:51;;;;;;;5.22;0.98;;;;;;;;;;4858058;29;20705;-76
2023/03/11 01:05:21;;;;;;;5.50;1.10;;;;;;;;;;4849272;29;20053;-76
2023/03/11 01:07:47;;;;;;;7.32;0.90;;;;;;;;;;4851184;29;22093;-77
2023/03/11 01:10:14;;;;;;;3.10;1.00;;;;;;;;;;4839088;29;20096;-76
2023/03/11 01:12:40;;;;;;;2.38;0.80;;;;;;;;;;4836915;29;20100;-76
2023/03/11 01:15:08;;;;;;;5.53;0.82;;;;;;;;;;4850341;29;20068;-76
2023/03/11 01:17:34;;;;;;;2.80;0.80;;;;;;;;;;4850090;29;20072;-76
2023/03/11 01:20:00;;;;;;;4.53;0.80;;;;;;;;;;4851501;29;21036;-76
2023/03/11 01:22:26;;;;;;;3.60;0.70;;;;;;;;;;4851487;29;20044;-76
2023/03/11 01:24:52;;;;;;;6.93;0.88;;;;;;;;;;4849923;29;20049;-76
2023/03/11 01:27:18;;;;;;;7.97;1.00;;;;;;;;;;4848926;29;20569;-76
2023/03/11 01:29:44;;;;;;;6.22;0.73;;;;;;;;;;4850774;29;20040;-76
2023/03/11 01:32:10;;;;;;;4.15;1.00;;;;;;;;;;4848776;29;20064;-76
2023/03/11 01:34:36;;;;;;;3.83;0.90;;;;;;;;;;4850108;29;20083;-76
2023/03/11 01:37:03;;;;;;;2.33;0.77;;;;;;;;;;4856751;29;20049;-77
2023/03/11 01:39:29;;;;;;;4.05;0.88;;;;;;;;;;4849497;29;20041;-77
2023/03/11 01:41:55;;;;;;;6.78;0.90;;;;;;;;;;4847215;29;20079;-77
2023/03/11 01:44:22;;;;;;;6.57;1.08;;;;;;;;;;4851214;29;20056;-77
2023/03/11 01:46:57;;;;;;;3.65;0.93;;;;;;;;;;4850307;29;20048;-76
2023/03/11 01:49:23;;;;;;;5.80;0.55;;;;;;;;;;4838148;29;20135;-76
2023/03/11 01:51:51;;;;;;;4.68;0.80;;;;;;;;;;4847832;29;20143;-77
2023/03/11 01:54:26;;;;;;;5.88;0.80;;;;;;;;;;4849764;29;20049;-76
2023/03/11 01:56:52;;;;;;;3.20;1.38;;;;;;;;;;4855277;29;20100;-76
2023/03/11 01:59:28;;;;;;;3.25;0.90;;;;;;;;;;4847352;29;20079;-76
2023/03/11 02:01:59;;;;;;;7.43;1.67;;;;;;;;;;4849217;29;20510;-77
2023/03/11 02:04:25;;;;;;;7.85;1.38;;;;;;;;;;4849235;29;20213;-76
2023/03/11 02:06:51;;;;;;;5.07;1.10;;;;;;;;;;4850340;29;20156;-76
2023/03/11 02:09:18;;;;;;;5.32;0.85;;;;;;;;;;4876635;29;20036;-76
2023/03/11 02:11:44;;;;;;;2.00;0.43;;;;;;;;;;4856011;29;20131;-76
2023/03/11 02:14:10;;;;;;;4.68;0.80;;;;;;;;;;4869820;29;20081;-76
2023/03/11 02:16:36;;;;;;;6.25;0.82;;;;;;;;;;4856789;29;20045;-76
2023/03/11 02:19:09;;;;;;;5.20;0.60;;;;;;;;;;4860779;29;20049;-76
2023/03/11 02:21:35;;;;;;;2.45;0.73;;;;;;;;;;4851099;29;20091;-76
2023/03/11 02:24:10;;;;;;;2.75;0.80;;;;;;;;;;4847737;29;20063;-76
2023/03/11 02:26:40;;;;;;;4.18;0.50;;;;;;;;;;4856484;29;20044;-76
2023/03/11 02:29:07;;;;;;;4.72;1.33;;;;;;;;;;4852957;29;20089;-77
2023/03/11 02:31:34;;;;;;;2.67;0.63;;;;;;;;;;4843254;29;20052;-76
2023/03/11 02:34:01;;;;;;;4.18;3.28;;;;;;;;;;4836224;29;20750;-76
2023/03/11 02:36:45;;;;;;;2.60;0.80;;;;;;;;;;4851721;29;20044;-76
2023/03/11 02:39:13;;;;;;;3.30;0.95;;;;;;;;;;4840963;29;20104;-76
2023/03/11 02:41:41;;;;;;;3.50;0.70;;;;;;;;;;4855992;29;20048;-77
2023/03/11 02:44:09;;;;;;;5.05;0.68;;;;;;;;;;4851437;29;20053;-76
2023/03/11 02:46:36;;;;;;;4.03;0.77;;;;;;;;;;4848642;29;20056;-77
2023/03/11 02:49:02;;;;;;;5.75;0.70;;;;;;;;;;4848266;29;20060;-77
2023/03/11 02:51:28;;;;;;;8.07;0.93;;;;;;;;;;4851106;29;20132;-76
2023/03/11 02:53:57;;;;;;;2.58;0.65;;;;;;;;;;4851275;29;20051;-78
2023/03/11 02:56:23;;;;;;;6.85;0.80;;;;;;;;;;4850565;29;20151;-77
2023/03/11 02:58:49;;;;;;;2.55;0.47;;;;;;;;;;4852686;29;20045;-78
2023/03/11 03:01:15;;;;;;;7.40;0.90;;;;;;;;;;4852081;29;20063;-78
2023/03/11 03:03:41;;;;;;;2.72;0.63;;;;;;;;;;4852196;29;20064;-77
2023/03/11 03:06:07;;;;;;;3.28;0.80;;;;;;;;;;4848333;29;20064;-77
2023/03/11 03:08:33;;;;;;;3.80;0.60;;;;;;;;;;4848561;29;20857;-78
2023/03/11 03:11:00;;;;;;;4.97;0.82;;;;;;;;;;4832122;29;20059;-77
2023/03/11 03:13:27;;;;;;;4.38;0.95;;;;;;;;;;4847841;29;20508;-77
2023/03/11 03:15:53;;;;;;;2.25;0.80;;;;;;;;;;4848897;29;20140;-77
2023/03/11 03:18:19;;;;;;;3.20;0.85;;;;;;;;;;4849661;29;20140;-78
2023/03/11 03:20:45;;;;;;;2.83;0.98;;;;;;;;;;4829026;29;20056;-78
2023/03/11 03:23:11;;;;;;;9.98;0.82;;;;;;;;;;4847957;29;20063;-78
2023/03/11 03:25:41;;;;;;;5.68;0.73;;;;;;;;;;4848076;29;20059;-78
2023/03/11 03:28:07;;;;;;;1.60;0.60;;;;;;;;;;4847493;29;20051;-77
2023/03/11 03:30:33;;;;;;;5.75;1.02;;;;;;;;;;4848021;29;20101;-78
2023/03/11 03:32:59;;;;;;;1.38;0.60;;;;;;;;;;4846514;29;20621;-78
2023/03/11 03:35:25;;;;;;;5.35;1.00;;;;;;;;;;4833443;29;22808;-78
2023/03/11 03:37:51;;;;;;;2.58;0.90;;;;;;;;;;4845925;29;20141;-78
2023/03/11 03:40:17;;;;;;;3.83;0.90;;;;;;;;;;4854684;29;20041;-78
2023/03/11 03:42:43;;;;;;;4.35;1.20;;;;;;;;;;4832211;29;20059;-78
2023/03/11 03:45:09;;;;;;;7.35;1.65;;;;;;;;;;4848959;29;20037;-78
2023/03/11 03:47:36;;;;;;;3.97;1.00;;;;;;;;;;4845570;29;20059;-78
2023/03/11 03:50:04;;;;;;;5.60;0.90;;;;;;;;;;4846540;29;20048;-78
2023/03/11 03:52:30;;;;;;;6.15;1.08;;;;;;;;;;4849612;29;20049;-78
2023/03/11 03:54:56;;;;;;;5.25;0.65;;;;;;;;;;4847945;29;20045;-77
2023/03/11 03:57:22;;;;;;;11.32;2.20;;;;;;;;;;4853643;29;20055;-77
2023/03/11 03:59:48;;;;;;;3.38;1.10;;;;;;;;;;4864646;29;20045;-77
2023/03/11 04:02:14;;;;;;;3.90;0.70;;;;;;;;;;4878506;29;20049;-77
2023/03/11 04:04:40;;;;;;;5.00;1.08;;;;;;;;;;4855581;29;20049;-77
2023/03/11 04:07:06;;;;;;;4.70;0.95;;;;;;;;;;4856049;29;20044;-76
2023/03/11 04:09:33;;;;;;;7.65;1.20;;;;;;;;;;4826088;29;20048;-78
2023/03/11 04:11:59;;;;;;;3.97;0.70;;;;;;;;;;4841251;29;20055;-78
2023/03/11 04:14:25;;;;;;;5.25;1.15;;;;;;;;;;4844794;29;20053;-78
2023/03/11 04:16:51;;;;;;;6.57;1.10;;;;;;;;;;4849799;29;20044;-77
2023/03/11 04:19:17;;;;;;;3.25;0.75;;;;;;;;;;4835195;29;20105;-78
2023/03/11 04:21:43;;;;;;;4.13;0.88;;;;;;;;;;4846898;29;20244;-78
2023/03/11 04:24:09;;;;;;;8.07;1.30;;;;;;;;;;4853898;29;20112;-78
2023/03/11 04:26:35;;;;;;;6.38;1.10;;;;;;;;;;4835270;29;20073;-78
2023/03/11 04:29:02;;;;;;;8.02;0.90;;;;;;;;;;4847326;29;20500;-78
2023/03/11 04:31:28;;;;;;;3.90;1.00;;;;;;;;;;4851933;29;20049;-78
2023/03/11 04:33:54;;;;;;;1.90;0.57;;;;;;;;;;4848630;29;20050;-77
2023/03/11 04:36:20;;;;;;;3.67;0.98;;;;;;;;;;4848392;29;20048;-77
2023/03/11 04:38:46;;;;;;;6.20;1.83;;;;;;;;;;4817253;29;20893;-77
2023/03/11 04:41:12;;;;;;;3.03;0.80;;;;;;;;;;4847233;29;20892;-78
2023/03/11 04:43:38;;;;;;;5.95;0.70;;;;;;;;;;4846675;29;20152;-77
2023/03/11 04:46:04;;;;;;;5.65;0.90;;;;;;;;;;4846384;29;21954;-78
2023/03/11 04:48:30;;;;;;;4.50;0.70;;;;;;;;;;4847882;29;20164;-78
2023/03/11 04:50:56;;;;;;;8.65;1.02;;;;;;;;;;4862182;29;20071;-77
2023/03/11 04:53:22;;;;;;;4.85;1.00;;;;;;;;;;4846909;29;20048;-78
2023/03/11 04:55:49;;;;;;;5.68;0.90;;;;;;;;;;4845454;29;20052;-77
2023/03/11 04:58:15;;;;;;;10.25;1.08;;;;;;;;;;4844817;29;20917;-77
2023/03/11 05:00:41;;;;;;;2.42;0.70;;;;;;;;;;4847822;29;20044;-77
2023/03/11 05:03:07;;;;;;;3.53;0.70;;;;;;;;;;4848458;29;20079;-82
2023/03/11 05:05:34;;;;;;;3.85;0.93;;;;;;;;;;4844157;29;21022;-81
2023/03/11 05:08:00;;;;;;;2.85;0.98;;;;;;;;;;4857630;29;20048;-81
2023/03/11 05:10:26;;;;;;;3.80;0.70;;;;;;;;;;4855128;29;20049;-80
2023/03/11 05:12:52;;;;;;;5.72;1.08;;;;;;;;;;4848802;29;20044;-77
2023/03/11 05:15:18;;;;;;;7.47;1.10;;;;;;;;;;4849287;29;20175;-79
2023/03/11 05:17:45;;;;;;;9.25;1.00;;;;;;;;;;4844930;29;20052;-79
2023/03/11 05:20:11;;;;;;;8.52;0.93;;;;;;;;;;4861910;29;20053;-79
2023/03/11 05:22:38;;;;;;;10.45;1.20;;;;;;;;;;4849612;29;20044;-79
2023/03/11 05:25:04;;;;;;;5.00;1.05;;;;;;;;;;4848741;29;20614;-79
2023/03/11 05:27:30;;;;;;;7.68;1.77;;;;;;;;;;4844504;29;20045;-78
2023/03/11 05:29:57;;;;;;;6.50;1.15;;;;;;;;;;4845588;29;20049;-78
2023/03/11 05:32:23;;;;;;;8.00;1.05;;;;;;;;;;4851375;29;20059;-78
2023/03/11 05:34:49;;;;;;;7.80;0.90;;;;;;;;;;4869669;29;20167;-79
2023/03/11 05:37:15;;;;;;;6.25;1.20;;;;;;;;;;4848272;29;20052;-78
2023/03/11 05:39:41;;;;;;;1.98;0.80;;;;;;;;;;4846255;29;20147;-76
2023/03/11 05:42:07;;;;;;;3.42;1.00;;;;;;;;;;4832132;29;20079;-77
2023/03/11 05:44:34;;;;;;;3.97;0.90;;;;;;;;;;4853144;29;20040;-76
2023/03/11 05:47:00;;;;;;;4.50;1.10;;;;;;;;;;4866762;29;20092;-77
2023/03/11 05:49:26;;;;;;;4.18;0.60;;;;;;;;;;4879963;29;20041;-76
2023/03/11 05:51:53;;;;;;;2.17;0.80;;;;;;;;;;4855152;29;20261;-76
2023/03/11 05:54:19;;;;;;;15.32;1.50;;;;;;;;;;4846187;29;20049;-76
2023/03/11 05:56:46;;;;;;;2.92;0.98;;;;;;;;;;4845686;29;20036;-77
2023/03/11 05:59:13;;;;;;;5.75;1.10;;;;;;;;;;4845138;29;20076;-77
2023/03/11 06:01:39;;;;;;;4.13;1.00;;;;;;;;;;4843924;29;20052;-77
2023/03/11 06:04:05;;;;;;;4.47;0.80;;;;;;;;;;4855238;29;21294;-78
2023/03/11 06:06:32;;;;;;;4.93;0.85;;;;;;;;;;4854973;29;20143;-78
2023/03/11 06:08:58;;;;;;;7.07;1.00;;;;;;;;;;4850100;29;20453;-78
2023/03/11 06:11:24;;;;;;;3.33;0.65;;;;;;;;;;4848726;29;21077;-78
2023/03/11 06:13:54;;;;;;;6.80;0.95;;;;;;;;;;4854462;29;20112;-77
2023/03/11 06:16:21;;;;;;;5.95;1.30;;;;;;;;;;4844929;29;20080;-77
2023/03/11 06:18:47;;;;;;;5.20;0.88;;;;;;;;;;4831472;29;20137;-78
2023/03/11 06:21:16;;;;;;;3.55;0.75;;;;;;;;;;4842860;29;20048;-77
2023/03/11 06:23:42;;;;;;;9.05;1.30;;;;;;;;;;4846245;29;20049;-74
2023/03/11 06:26:10;;;;;;;12.98;1.30;;;;;;;;;;4848511;29;20053;-74
2023/03/11 06:28:36;;;;;;;4.70;0.80;;;;;;;;;;4851283;29;20973;-73
2023/03/11 06:31:14;;;;;;;4.53;1.02;;;;;;;;;;4851636;29;20049;-73
2023/03/11 06:33:40;;;;;;;4.43;1.20;;;;;;;;;;4851654;29;20045;-73
2023/03/11 06:36:06;;;;;;;3.55;1.35;;;;;;;;;;4833159;29;20045;-74
2023/03/11 06:38:33;;;;;;;10.90;1.20;;;;;;;;;;4849112;29;20049;-74
2023/03/11 06:41:00;;;;;;;4.57;1.00;;;;;;;;;;4844780;29;20049;-74
2023/03/11 06:43:26;;;;;;;4.75;1.00;;;;;;;;;;4842073;29;20051;-74
2023/03/11 06:45:52;;;;;;;7.10;1.25;;;;;;;;;;4832817;29;20067;-74
2023/03/11 06:48:19;;;;;;;5.65;1.27;;;;;;;;;;4829487;29;20044;-75
2023/03/11 06:50:52;;;;;;;9.35;1.23;;;;;;;;;;4839773;29;20446;-75
2023/03/11 06:53:19;;;;;;;6.67;1.17;;;;;;;;;;4847795;29;20510;-75
2023/03/11 06:55:45;;;;;;;4.00;1.30;;;;;;;;;;4851431;29;20079;-75
2023/03/11 06:58:11;;;;;;;10.63;4.35;;;;;;;;;;4832676;29;20051;-75
2023/03/11 07:00:37;;;;;;;15.43;3.13;;;;;;;;;;4851404;29;20096;-75
2023/03/11 07:03:03;;;;;;;21.70;1.50;;;;;;;;;;4830766;29;20061;-75
2023/03/11 07:05:29;;;;;;;2.63;1.10;;;;;;;;;;4848901;29;20536;-73
2023/03/11 07:07:55;;;;;;;3.38;1.13;;;;;;;;;;4837096;29;20139;-73
2023/03/11 07:10:21;;;;;;;7.15;1.15;;;;;;;;;;4831726;29;20051;-75
2023/03/11 07:12:47;;;;;;;4.95;1.35;;;;;;;;;;4851096;29;20069;-73
2023/03/11 07:15:13;;;;;;;5.15;1.25;;;;;;;;;;4865822;29;20044;-74
2023/03/11 07:17:39;;;;;;;6.45;2.22;;;;;;;;;;4849940;29;20048;-74
2023/03/11 07:20:06;;;;;;;10.30;4.32;;;;;;;;;;4846385;29;20052;-75
2023/03/11 07:22:32;;;;;;;26.52;11.07;;;;;;;;;;4847068;29;20053;-77
2023/03/11 07:24:58;;;;;;;12.93;5.03;;;;;;;;;;4837242;29;20064;-78
2023/03/11 07:27:24;;;;;;;4.57;1.75;;;;;;;;;;4852642;29;20048;-77
2023/03/11 07:29:50;;;;;;;10.52;1.80;;;;;;;;;;4859998;29;20139;-76
2023/03/11 07:32:16;;;;;;;4.43;1.73;;;;;;;;;;4871655;29;20167;-78
2023/03/11 07:34:42;;;;;;;8.57;2.88;;;;;;;;;;4855981;29;20123;-77
2023/03/11 07:37:08;;;;;;;6.18;1.33;;;;;;;;;;4835188;29;20040;-77
2023/03/11 07:39:34;;;;;;;2.13;1.42;;;;;;;;;;4838548;29;20041;-77
2023/03/11 07:42:01;;;;;;;7.60;3.53;;;;;;;;;;4837966;29;20115;-78
2023/03/11 07:44:27;;;;;;;4.28;1.33;;;;;;;;;;4845393;29;20132;-72
2023/03/11 07:46:53;;;;;;;6.72;1.33;;;;;;;;;;4852730;29;20504;-71
2023/03/11 07:49:19;;;;;;;4.78;1.27;;;;;;;;;;4852636;29;20058;-73
2023/03/11 07:51:45;;;;;;;7.75;1.77;;;;;;;;;;4835839;29;20107;-72
2023/03/11 07:54:11;;;;;;;3.35;1.15;;;;;;;;;;4852113;29;20049;-72
2023/03/11 07:56:37;;;;;;;4.95;1.58;;;;;;;;;;4852127;29;20136;-72
2023/03/11 07:59:04;;;;;;;6.80;1.15;;;;;;;;;;4852196;29;20044;-72
2023/03/11 08:01:35;;;;;;;3.00;0.80;;;;;;;;;;4851153;29;20053;-72
2023/03/11 08:04:02;;;;;;;5.45;1.20;;;;;;;;;;4868760;29;20071;-80
2023/03/11 08:06:30;;;;;;;5.20;1.10;;;;;;;;;;4853327;29;20060;-77
2023/03/11 08:08:56;;;;;;;5.88;1.08;;;;;;;;;;4852427;29;20116;-77
2023/03/11 08:11:23;;;;;;;2.72;0.90;;;;;;;;;;4851881;29;20077;-77
2023/03/11 08:13:50;;;;;;;5.45;1.20;;;;;;;;;;4851186;29;20044;-77
2023/03/11 08:16:17;;;;;;;6.72;1.23;;;;;;;;;;4835965;29;20049;-77
2023/03/11 08:18:44;;;;;;;5.63;1.95;;;;;;;;;;4855646;29;20063;-77
2023/03/11 08:21:15;;;;;;;6.88;1.40;;;;;;;;;;4852984;29;20525;-77
2023/03/11 08:23:42;;;;;;;6.63;1.55;;;;;;;;;;4859499;29;20484;-77
2023/03/11 08:26:09;;;;;;;6.63;1.25;;;;;;;;;;4853102;29;20053;-76
2023/03/11 08:28:36;;;;;;;6.20;1.10;;;;;;;;;;4852274;29;20490;-77
2023/03/11 08:31:02;;;;;;;24.58;3.47;;;;;;;;;;4843471;29;20067;-78
2023/03/11 08:33:28;;;;;;;3.33;1.08;;;;;;;;;;4853206;29;20699;-76
2023/03/11 08:35:54;;;;;;;8.45;1.48;;;;;;;;;;4834281;29;20052;-77
2023/03/11 08:38:21;;;;;;;9.15;2.10;;;;;;;;;;4850370;29;20066;-78
2023/03/11 08:40:47;;;;;;;3.25;1.20;;;;;;;;;;4834722;29;20045;-79
2023/03/11 08:43:13;;;;;;;7.00;1.55;;;;;;;;;;4850407;29;20070;-77
2023/03/11 08:45:42;;;;;;;3.78;1.30;;;;;;;;;;4850178;29;20587;-79
2023/03/11 08:48:10;;;;;;;3.33;1.00;;;;;;;;;;4849854;29;20053;-78
2023/03/11 08:50:36;;;;;;;7.82;1.50;;;;;;;;;;4851623;29;20074;-78
2023/03/11 08:53:02;;;;;;;5.10;1.20;;;;;;;;;;4866067;29;20041;-78
2023/03/11 08:55:28;;;;;;;9.57;1.58;;;;;;;;;;4848196;29;20597;-79
2023/03/11 08:57:55;;;;;;;3.83;0.80;;;;;;;;;;4837826;29;20052;-79
2023/03/11 09:00:22;;;;;;;8.23;1.63;;;;;;;;;;4825151;29;20044;-78
2023/03/11 09:02:48;;;;;;;10.07;1.75;;;;;;;;;;4866319;29;20057;-78
2023/03/11 09:05:15;;;;;;;13.63;1.65;;;;;;;;;;4849938;29;20749;-78
2023/03/11 09:07:41;;;;;;;11.85;2.33;;;;;;;;;;4855452;29;20553;-78
2023/03/11 09:10:07;;;;;;;6.50;1.40;;;;;;;;;;4852469;29;20385;-78
2023/03/11 09:12:33;;;;;;;10.30;1.35;;;;;;;;;;4850387;29;20047;-78
2023/03/11 09:14:59;;;;;;;6.18;1.58;;;;;;;;;;4852233;29;20092;-78
2023/03/11 09:17:25;;;;;;;10.60;1.65;;;;;;;;;;4850596;29;20368;-78
2023/03/11 09:19:52;;;;;;;2.00;1.25;;;;;;;;;;4835769;29;20064;-80
2023/03/11 09:22:18;;;;;;;4.38;1.15;;;;;;;;;;4848861;29;20060;-80
2023/03/11 09:24:44;;;;;;;3.13;1.15;;;;;;;;;;4864379;29;20052;-80
2023/03/11 09:27:11;;;;;;;7.30;1.30;;;;;;;;;;4839493;29;20719;-79
2023/03/11 09:29:38;;;;;;;10.25;1.67;;;;;;;;;;4835682;29;20568;-77
2023/03/11 09:32:05;;;;;;;6.43;1.02;;;;;;;;;;4849561;29;20053;-79
2023/03/11 09:34:31;;;;;;;4.75;1.33;;;;;;;;;;4850906;29;20489;-79
2023/03/11 09:36:57;;;;;;;8.48;1.20;;;;;;;;;;4847386;29;20071;-80
2023/03/11 09:39:23;;;;;;;5.07;1.42;;;;;;;;;;4837064;29;20040;-81
2023/03/11 09:41:54;;;;;;;12.02;2.42;;;;;;;;;;4849822;29;20502;-79
2023/03/11 09:44:20;;;;;;;7.78;2.35;;;;;;;;;;4851744;29;20055;-79
2023/03/11 09:47:05;;;;;;;10.73;1.85;;;;;;;;;;4854748;29;20354;-81
2023/03/11 09:49:46;;;;;;;3.38;1.10;;;;;;;;;;4848557;29;20067;-82
2023/03/11 09:52:14;;;;;;;5.43;1.30;;;;;;;;;;4852127;29;20505;-82
2023/03/11 09:54:42;;;;;;;5.18;1.30;;;;;;;;;;4850676;29;20040;-80
2023/03/11 09:57:29;;;;;;;5.22;1.77;;;;;;;;;;4855864;29;20165;-81
2023/03/11 09:59:55;;;;;;;7.88;1.48;;;;;;;;;;4857784;29;20084;-82
2023/03/11 10:02:26;;;;;;;4.38;1.00;;;;;;;;;;4820623;29;20148;-82
2023/03/11 10:05:11;;;;;;;9.23;1.67;;;;;;;;;;4855020;29;20071;-82
2023/03/11 10:07:43;;;;;;;12.40;2.25;;;;;;;;;;4848190;29;20053;-80
2023/03/11 10:10:13;;;;;;;3.88;1.38;;;;;;;;;;4851990;29;20124;-80
2023/03/11 10:13:03;;;;;;;4.03;1.10;;;;;;;;;;4851184;29;20652;-80
2023/03/11 10:15:35;;;;;;;2.80;0.98;;;;;;;;;;4844421;29;20140;-80
2023/03/11 10:18:07;;;;;;;6.93;1.85;;;;;;;;;;4852222;29;20045;-80
2023/03/11 10:20:33;;;;;;;5.80;1.73;;;;;;;;;;4849579;29;20045;-80
2023/03/11 10:23:02;;;;;;;11.15;2.85;;;;;;;;;;4849813;29;20092;-80
2023/03/11 10:25:42;;;;;;;4.63;1.50;;;;;;;;;;4852112;29;20053;-80
2023/03/11 10:28:16;;;;;;;5.30;1.23;;;;;;;;;;4849639;29;20056;-80
2023/03/11 10:30:44;;;;;;;5.25;1.13;;;;;;;;;;4842058;29;20192;-80
2023/03/11 10:33:13;;;;;;;5.75;1.17;;;;;;;;;;4850380;29;21835;-80
2023/03/11 10:35:41;;;;;;;3.90;1.38;;;;;;;;;;4854582;29;20072;-80
2023/03/11 10:38:20;;;;;;;11.10;1.40;;;;;;;;;;4856561;29;20049;-79
2023/03/11 10:40:47;;;;;;;7.90;1.33;;;;;;;;;;4847466;29;20047;-78
2023/03/11 10:43:25;;;;;;;13.68;1.77;;;;;;;;;;4853091;29;20473;-79
2023/03/11 10:45:52;;;;;;;5.90;1.40;;;;;;;;;;4850751;29;20053;-78
2023/03/11 10:48:19;;;;;;;2.50;1.23;;;;;;;;;;4854358;29;20048;-77
2023/03/11 10:50:45;;;;;;;6.65;1.60;;;;;;;;;;4863441;29;20059;-79
2023/03/11 10:53:16;;;;;;;4.57;1.63;;;;;;;;;;4852335;29;20059;-78
2023/03/11 10:55:45;;;;;;;11.43;2.00;;;;;;;;;;4849021;29;20124;-78
2023/03/11 10:58:13;;;;;;;9.88;1.58;;;;;;;;;;4850663;29;20076;-78
2023/03/11 11:00:39;;;;;;;8.43;1.40;;;;;;;;;;4849134;29;20048;-78
2023/03/11 11:03:12;;;;;;;2.10;1.13;;;;;;;;;;4850137;29;20072;-78
2023/03/11 11:05:39;;;;;;;7.15;1.85;;;;;;;;;;4866486;29;20438;-78
2023/03/11 11:08:16;;;;;;;3.17;1.10;;;;;;;;;;4865823;29;20064;-78
2023/03/11 11:10:50;;;;;;;7.70;1.30;;;;;;;;;;4850975;29;20049;-78
2023/03/11 11:13:18;;;;;;;5.80;1.33;;;;;;;;;;4850463;29;20059;-78
2023/03/11 11:15:54;;;;;;;6.50;3.08;;;;;;;;;;4848979;29;20041;-78
2023/03/11 11:18:32;;;;;;;6.18;1.20;;;;;;;;;;4847986;29;20093;-80
2023/03/11 11:21:10;;;;;;;7.25;1.25;;;;;;;;;;4851737;29;20037;-78
2023/03/11 11:23:44;;;;;;;6.88;1.20;;;;;;;;;;4846285;29;20770;-79
2023/03/11 11:26:19;;;;;;;8.30;1.55;;;;;;;;;;4846687;29;20041;-78
2023/03/11 11:28:46;;;;;;;5.53;0.90;;;;;;;;;;4841295;29;20066;-79
2023/03/11 11:31:25;;;;;;;3.63;1.20;;;;;;;;;;4831815;29;20132;-79
2023/03/11 11:33:53;;;;;;;2.63;1.15;;;;;;;;;;4847921;29;20464;-78
2023/03/11 11:36:20;;;;;;;6.50;1.08;;;;;;;;;;4835810;29;20037;-79
2023/03/11 11:38:46;;;;;;;4.43;0.90;;;;;;;;;;4836160;29;20060;-79
2023/03/11 11:41:14;;;;;;;7.30;1.40;;;;;;;;;;4847766;29;20079;-77
2023/03/11 11:43:48;;;;;;;7.07;1.38;;;;;;;;;;4844858;29;20549;-77
2023/03/11 11:46:20;;;;;;;6.47;1.00;;;;;;;;;;4847517;29;20048;-78
2023/03/11 11:48:55;;;;;;;2.97;1.10;;;;;;;;;;4851042;29;20055;-78
2023/03/11 11:51:29;;;;;;;7.65;1.13;;;;;;;;;;4852831;29;20449;-77
2023/03/11 11:53:56;;;;;;;5.78;1.08;;;;;;;;;;4842260;29;20053;-77
2023/03/11 11:56:26;;;;;;;3.30;1.30;;;;;;;;;;4846632;29;20084;-78
2023/03/11 11:58:53;;;;;;;7.63;0.90;;;;;;;;;;4845672;29;20076;-77
2023/03/11 12:01:29;;;;;;;5.03;1.17;;;;;;;;;;4837039;29;20095;-76
2023/03/11 12:03:59;;;;;;;2.70;0.90;;;;;;;;;;4848933;29;20077;-77
2023/03/11 12:06:37;;;;;;;4.95;1.25;;;;;;;;;;4861014;29;20068;-78
2023/03/11 12:09:13;;;;;;;4.82;0.98;;;;;;;;;;4848443;29;20100;-77
2023/03/11 12:11:57;;;;;;;4.57;1.15;;;;;;;;;;4847476;29;20635;-78
2023/03/11 12:14:23;;;;;;;;;;;;;;;;;;4846634;29;20052;-77
2023/03/11 12:16:49;;;;;;;4.68;1.45;;;;;;;;;;4845110;29;19972;-77
2023/03/11 12:19:23;;;;;;;6.18;1.70;;;;;;;;;;4848444;29;20049;-76
2023/03/11 12:21:49;;;;;;;12.60;1.38;;;;;;;;;;4847046;29;20190;-77
2023/03/11 12:24:35;;;;;;;1.73;1.00;;;;;;;;;;4846331;29;20067;-78
2023/03/11 12:27:04;;;;;;;5.88;1.20;;;;;;;;;;4836694;29;20195;-77
2023/03/11 12:29:36;;;;;;;4.10;1.42;;;;;;;;;;4849734;29;20044;-77
2023/03/11 12:32:03;;;;;;;8.48;1.20;;;;;;;;;;4850845;29;20130;-77
2023/03/11 12:34:30;;;;;;;7.85;1.80;;;;;;;;;;4847713;29;20051;-77
2023/03/11 12:37:02;;;;;;;11.05;1.33;;;;;;;;;;4847161;29;20048;-77
2023/03/11 12:39:32;;;;;;;4.68;1.02;;;;;;;;;;4843615;29;20048;-77
2023/03/11 12:42:10;;;;;;;4.50;0.90;;;;;;;;;;4845688;29;20498;-77
2023/03/11 12:44:37;;;;;;;8.38;1.20;;;;;;;;;;4834136;29;20048;-78
2023/03/11 12:47:10;;;;;;;10.32;1.50;;;;;;;;;;4836974;29;20045;-77
2023/03/11 12:49:43;;;;;;;3.70;0.80;;;;;;;;;;4845170;29;20124;-77
2023/03/11 12:52:12;;;;;;;3.75;1.08;;;;;;;;;;4836170;29;20061;-76
2023/03/11 12:54:38;;;;;;;6.35;0.95;;;;;;;;;;4847234;29;20139;-76
2023/03/11 12:57:20;;;;;;;2.53;0.80;;;;;;;;;;4829345;29;20053;-76
2023/03/11 13:00:11;;;;;;;5.15;1.05;;;;;;;;;;4859199;29;20160;-76
2023/03/11 13:02:55;;;;;;;10.20;1.20;;;;;;;;;;4824124;29;20056;-77
2023/03/11 13:05:30;;;;;;;;;;;7.00;99.90;;;;;;4849104;29;20056;-77
2023/03/11 13:08:03;;;;;;;8.98;1.10;;;;;;;;;;4851740;29;20826;-77
2023/03/11 13:10:43;;;;;;;2.22;0.52;;;;;;;;;;4852506;29;20069;-77
2023/03/11 13:13:28;;;;;;;8.27;0.85;;;;;;;;;;4852168;29;20049;-77
2023/03/11 13:15:55;;;;;;;3.17;0.70;;;;;;;;;;4852571;29;20366;-76
2023/03/11 13:18:31;;;;;;;4.22;1.20;;;;;;;;;;4851720;29;20046;-77
2023/03/11 13:21:01;;;;;;;8.88;1.20;;;;;;;;;;4854846;29;20093;-77
2023/03/11 13:23:28;;;;;;;10.15;1.20;;;;;;;;;;4836993;29;20056;-77
2023/03/11 13:25:54;;;;;;;3.08;1.13;;;;;;;;;;4852743;29;20079;-76
2023/03/11 13:28:26;;;;;;;13.02;2.58;;;;;;;;;;4849272;29;20044;-77
2023/03/11 13:30:52;;;;;;;5.35;1.00;;;;;;;;;;4852735;29;20612;-78
2023/03/11 13:33:21;;;;;;;4.82;1.00;;;;;;;;;;4850411;29;20056;-77
2023/03/11 13:35:47;;;;;;;5.75;0.90;;;;;;;;;;4852311;29;20494;-77
2023/03/11 13:38:32;;;;;;;9.45;1.05;;;;;;;;;;4855091;29;20686;-77
2023/03/11 13:41:00;;;;;;;5.55;1.00;;;;;;;;;;4853212;29;20080;-77
2023/03/11 13:43:26;;;;;;;4.38;1.30;;;;;;;;;;4850194;29;20136;-77
2023/03/11 13:45:56;;;;;;;7.68;1.27;;;;;;;;;;4851640;29;20709;-77
2023/03/11 13:48:29;;;;;;;4.15;0.93;;;;;;;;;;4844390;29;20084;-77
2023/03/11 13:50:58;;;;;;;5.03;0.85;;;;;;;;;;4855844;29;20049;-76
2023/03/11 13:53:44;;;;;;;4.80;0.93;;;;;;;;;;4851154;29;20112;-77
2023/03/11 13:56:17;;;;;;;3.58;0.90;;;;;;;;;;4867265;29;20045;-77
2023/03/11 13:58:43;;;;;;;3.97;0.82;;;;;;;;;;4851167;29;20052;-77
2023/03/11 14:01:15;;;;;;;1.52;0.73;;;;;;;;;;4835989;29;20329;-77
2023/03/11 14:03:42;;;;;;;4.75;0.85;;;;;;;;;;4849946;29;20569;-77
2023/03/11 14:06:11;;;;;;;8.02;0.93;;;;;;;;;;4849397;29;20061;-76
2023/03/11 14:08:38;;;;;;;2.85;0.55;;;;;;;;;;4851694;29;20045;-77
2023/03/11 14:11:04;;;;;;;4.70;0.80;;;;;;;;;;4861511;29;20111;-76
2023/03/11 14:13:31;;;;;;;6.60;0.85;;;;;;;;;;4856719;29;20177;-76
2023/03/11 14:15:57;;;;;;;1.13;0.68;;;;;;;;;;4849908;29;20049;-76
2023/03/11 14:18:26;;;;;;;1.08;0.80;;;;;;;;;;4853634;29;20139;-76
2023/03/11 14:20:52;;;;;;;2.35;0.50;;;;;;;;;;4849336;29;20179;-76
2023/03/11 14:23:19;;;;;;;7.45;1.00;;;;;;;;;;4852489;29;20053;-76
2023/03/11 14:25:45;;;;;;;0.98;0.57;;;;;;;;;;4855892;29;20138;-76
2023/03/11 14:28:19;;;;;;;2.22;0.60;;;;;;;;;;4853033;29;20056;-76
2023/03/11 14:30:56;;;;;;;3.28;0.90;;;;;;;;;;4851183;29;20188;-76
2023/03/11 14:33:22;;;;;;;5.55;1.00;;;;;;;;;;4868832;29;20052;-76
2023/03/11 14:35:53;;;;;;;8.10;0.80;;;;;;;;;;4829328;29;20454;-76
2023/03/11 14:38:20;;;;;;;2.88;0.70;;;;;;;;;;4852427;29;20091;-76
2023/03/11 14:40:49;;;;;;;0.73;0.70;;;;;;;;;;4837249;29;20395;-76
2023/03/11 14:43:16;;;;;;;5.25;1.45;;;;;;;;;;4856856;29;20492;-76
2023/03/11 14:45:42;;;;;;;3.75;0.60;;;;;;;;;;4833578;29;20111;-75
2023/03/11 14:48:14;;;;;;;1.27;0.63;;;;;;;;;;4850362;29;21501;-75
2023/03/11 14:50:41;;;;;;;6.40;1.00;;;;;;;;;;4846434;29;20453;-75